createdAt,value
2022-10-28T00:01:13.135Z,20.17
2022-10-28T00:03:46.947Z,18.67
2022-10-28T00:06:24.233Z,21.50
2022-10-28T00:08:51.788Z,23.23
2022-10-28T00:11:29.078Z,19.95
2022-10-28T00:13:59.533Z,34.10
2022-10-28T00:16:30.467Z,22.15
2022-10-28T00:19:02.661Z,15.85
2022-10-28T00:21:34.775Z,12.38
2022-10-28T00:24:01.956Z,15.23
2022-10-28T00:26:31.741Z,16.42
2022-10-28T00:29:03.621Z,13.25
2022-10-28T00:31:32.464Z,18.02
2022-10-28T00:34:01.387Z,19.63
2022-10-28T00:36:32.381Z,11.27
2022-10-28T00:39:01.014Z,19.88
2022-10-28T00:41:32.573Z,20.03
2022-10-28T00:44:22.089Z,19.45
2022-10-28T00:46:52.616Z,14.57
2022-10-28T00:49:31.363Z,17.95
2022-10-28T00:52:08.331Z,14.50
2022-10-28T00:54:37.373Z,17.15
2022-10-28T00:57:09.825Z,15.35
2022-10-28T00:59:42.461Z,21.55
2022-10-28T01:02:09.749Z,20.00
2022-10-28T01:04:37.228Z,15.18
2022-10-28T01:07:05.276Z,13.55
2022-10-28T01:09:32.426Z,16.35
2022-10-28T01:12:27.406Z,14.43
2022-10-28T01:15:09.278Z,17.50
2022-10-28T01:18:27.883Z,14.20
2022-10-28T01:21:24.382Z,15.63
2022-10-28T01:24:40.852Z,17.70
2022-10-28T01:27:41.702Z,21.13
2022-10-28T01:30:18.606Z,25.13
2022-10-28T01:33:06.727Z,18.33
2022-10-28T01:35:53.350Z,20.35
2022-10-28T01:38:44.045Z,15.73
2022-10-28T01:41:41.879Z,14.98
2022-10-28T01:44:25.443Z,12.23
2022-10-28T01:47:28.412Z,13.18
2022-10-28T01:50:30.551Z,13.65
2022-10-28T01:53:03.798Z,14.35
2022-10-28T01:55:37.578Z,16.65
2022-10-28T01:58:06.639Z,15.88
2022-10-28T02:00:35.397Z,11.63
2022-10-28T02:03:05.357Z,14.55
2022-10-28T02:05:48.471Z,16.48
2022-10-28T02:08:18.534Z,12.25
2022-10-28T02:11:00.566Z,12.63
2022-10-28T02:13:57.644Z,13.82
2022-10-28T02:16:51.074Z,12.93
2022-10-28T02:19:36.903Z,14.63
2022-10-28T02:22:29.429Z,14.85
2022-10-28T02:25:25.271Z,17.95
2022-10-28T02:28:37.023Z,17.25
2022-10-28T02:31:36.591Z,20.73
2022-10-28T02:34:17.348Z,24.60
2022-10-28T02:36:50.370Z,18.20
2022-10-28T02:39:25.695Z,18.40
2022-10-28T02:42:00.944Z,19.83
2022-10-28T02:44:33.863Z,25.92
2022-10-28T02:47:13.463Z,26.02
2022-10-28T02:49:44.470Z,30.80
2022-10-28T02:52:12.960Z,34.42
2022-10-28T02:54:53.680Z,29.17
2022-10-28T02:57:25.009Z,29.63
2022-10-28T03:00:08.130Z,31.13
2022-10-28T03:02:35.680Z,45.58
2022-10-28T03:05:05.008Z,23.20
2022-10-28T03:07:32.105Z,38.45
2022-10-28T03:09:59.284Z,45.50
2022-10-28T03:12:26.492Z,30.50
2022-10-28T03:14:53.562Z,38.88
2022-10-28T03:17:20.616Z,25.05
2022-10-28T03:19:47.857Z,29.35
2022-10-28T03:22:15.174Z,20.90
2022-10-28T03:24:42.335Z,33.42
2022-10-28T03:27:09.395Z,29.75
2022-10-28T03:29:36.570Z,23.42
2022-10-28T03:32:04.073Z,27.98
2022-10-28T03:34:31.143Z,25.77
2022-10-28T03:36:58.224Z,25.13
2022-10-28T03:39:25.805Z,21.13
2022-10-28T03:41:52.930Z,29.98
2022-10-28T03:44:20.076Z,22.27
2022-10-28T03:46:47.216Z,20.60
2022-10-28T03:49:14.454Z,19.98
2022-10-28T03:51:41.596Z,23.75
2022-10-28T03:54:08.708Z,22.08
2022-10-28T03:56:35.852Z,21.15
2022-10-28T03:59:02.951Z,18.33
2022-10-28T04:01:30.246Z,17.83
2022-10-28T04:03:57.377Z,19.92
2022-10-28T04:06:24.567Z,14.60
2022-10-28T04:08:51.698Z,17.05
2022-10-28T04:11:18.897Z,19.13
2022-10-28T04:13:46.056Z,24.25
2022-10-28T04:16:13.253Z,17.25
2022-10-28T04:18:40.430Z,16.33
2022-10-28T04:21:07.709Z,20.85
2022-10-28T04:23:34.998Z,20.13
2022-10-28T04:26:02.320Z,24.75
2022-10-28T04:28:29.520Z,23.85
2022-10-28T04:30:56.797Z,24.15
2022-10-28T04:33:23.958Z,34.15
2022-10-28T04:35:51.525Z,26.80
2022-10-28T04:38:18.622Z,25.60
2022-10-28T04:40:49.548Z,16.05
2022-10-28T04:43:16.714Z,15.93
2022-10-28T04:45:46.295Z,18.38
2022-10-28T04:48:13.445Z,10.25
2022-10-28T04:50:41.311Z,10.20
2022-10-28T04:53:12.429Z,11.80
2022-10-28T04:55:39.599Z,22.02
2022-10-28T04:58:06.722Z,15.77
2022-10-28T05:00:33.873Z,23.08
2022-10-28T05:03:02.417Z,23.15
2022-10-28T05:05:29.653Z,63.63
2022-10-28T05:07:56.918Z,54.20
2022-10-28T05:10:24.729Z,56.55
2022-10-28T05:12:51.959Z,32.85
2022-10-28T05:15:19.321Z,37.28
2022-10-28T05:17:47.507Z,35.58
2022-10-28T05:20:17.759Z,28.35
2022-10-28T05:22:51.899Z,32.15
2022-10-28T05:25:20.726Z,39.47
2022-10-28T05:27:48.577Z,57.90
2022-10-28T05:30:16.042Z,64.63
2022-10-28T05:32:43.434Z,51.20
2022-10-28T05:35:11.180Z,49.88
2022-10-28T05:37:38.340Z,24.92
2022-10-28T05:40:06.313Z,42.25
2022-10-28T05:42:33.401Z,24.20
2022-10-28T05:45:00.524Z,20.00
2022-10-28T05:47:27.891Z,27.73
2022-10-28T05:49:55.174Z,13.23
2022-10-28T05:52:22.279Z,28.48
2022-10-28T05:54:49.475Z,28.13
2022-10-28T05:57:17.334Z,26.00
2022-10-28T05:59:44.453Z,25.90
2022-10-28T06:02:14.881Z,34.00
2022-10-28T06:04:42.089Z,13.95
2022-10-28T06:07:09.359Z,21.42
2022-10-28T06:09:36.669Z,17.52
2022-10-28T06:12:04.580Z,21.80
2022-10-28T06:14:32.041Z,27.05
2022-10-28T06:16:59.267Z,14.82
2022-10-28T06:19:26.400Z,17.73
2022-10-28T06:21:53.481Z,17.35
2022-10-28T06:24:20.601Z,11.70
2022-10-28T06:26:47.790Z,17.55
2022-10-28T06:29:15.034Z,17.15
2022-10-28T06:31:42.557Z,36.72
2022-10-28T06:34:10.583Z,16.67
2022-10-28T06:36:38.149Z,18.67
2022-10-28T06:39:05.375Z,26.17
2022-10-28T06:41:32.983Z,24.45
2022-10-28T06:44:00.317Z,24.75
2022-10-28T06:46:27.716Z,19.08
2022-10-28T06:48:56.714Z,14.77
2022-10-28T06:51:24.915Z,26.05
2022-10-28T06:53:52.403Z,19.65
2022-10-28T06:56:20.085Z,21.98
2022-10-28T06:58:54.640Z,19.17
2022-10-28T07:01:22.419Z,21.08
2022-10-28T07:03:49.699Z,12.40
2022-10-28T07:06:17.363Z,15.23
2022-10-28T07:08:44.733Z,18.23
2022-10-28T07:11:12.042Z,14.50
2022-10-28T07:13:39.817Z,19.58
2022-10-28T07:16:07.209Z,21.63
2022-10-28T07:18:34.350Z,14.50
2022-10-28T07:21:01.990Z,23.52
2022-10-28T07:23:33.682Z,10.02
2022-10-28T07:26:01.000Z,19.20
2022-10-28T07:28:29.297Z,21.15
2022-10-28T07:31:01.579Z,24.42
2022-10-28T07:33:28.832Z,16.98
2022-10-28T07:35:55.944Z,26.13
2022-10-28T07:38:23.263Z,22.48
2022-10-28T07:40:50.336Z,33.17
2022-10-28T07:43:17.613Z,31.08
2022-10-28T07:45:44.754Z,45.10
2022-10-28T07:48:12.094Z,33.67
2022-10-28T07:50:42.661Z,30.27
2022-10-28T07:53:09.938Z,37.08
2022-10-28T07:55:37.203Z,41.25
2022-10-28T07:58:04.648Z,28.00
2022-10-28T08:00:31.846Z,39.88
2022-10-28T08:02:59.062Z,34.65
2022-10-28T08:05:26.184Z,29.85
2022-10-28T08:07:53.587Z,23.52
2022-10-28T08:10:20.939Z,19.63
2022-10-28T08:12:48.080Z,18.88
2022-10-28T08:15:17.672Z,26.35
2022-10-28T08:17:53.288Z,37.55
2022-10-28T08:20:21.223Z,26.25
2022-10-28T08:22:48.822Z,24.23
2022-10-28T08:25:16.058Z,23.00
2022-10-28T08:27:43.327Z,23.13
2022-10-28T08:30:11.323Z,16.08
2022-10-28T08:32:38.517Z,22.23
2022-10-28T08:35:06.353Z,18.35
2022-10-28T08:37:34.880Z,13.65
2022-10-28T08:40:02.151Z,23.52
2022-10-28T08:42:45.755Z,11.90
2022-10-28T08:45:21.930Z,17.73
2022-10-28T08:48:06.220Z,18.75
2022-10-28T08:51:16.289Z,16.45
2022-10-28T08:54:01.670Z,20.70
2022-10-28T08:56:35.406Z,13.85
2022-10-28T08:59:07.088Z,35.38
2022-10-28T09:04:44.180Z,27.50
2022-10-28T09:07:21.734Z,18.67
2022-10-28T09:09:50.958Z,10.02
2022-10-28T09:12:24.069Z,15.23
2022-10-28T09:14:54.140Z,16.02
2022-10-28T09:17:51.143Z,19.33
2022-10-28T09:20:25.359Z,19.77
2022-10-28T09:23:09.216Z,11.95
2022-10-28T09:26:00.456Z,13.60
2022-10-28T09:28:46.212Z,12.40
2022-10-28T09:31:35.167Z,11.48
2022-10-28T09:37:14.536Z,8.63
2022-10-28T09:39:46.504Z,5.05
2022-10-28T09:42:26.625Z,5.72
2022-10-28T09:45:12.264Z,7.07
2022-10-28T09:47:50.162Z,8.82
2022-10-28T09:50:26.773Z,9.52
2022-10-28T09:53:46.866Z,11.43
2022-10-28T09:56:14.836Z,11.18
2022-10-28T09:58:46.697Z,9.30
2022-10-28T10:01:16.358Z,5.75
2022-10-28T10:03:47.235Z,6.43
2022-10-28T10:06:25.374Z,5.10
2022-10-28T10:08:56.181Z,7.17
2022-10-28T10:11:46.489Z,4.28
2022-10-28T10:14:23.970Z,4.05
2022-10-28T10:16:56.013Z,4.65
2022-10-28T10:19:23.427Z,2.10
2022-10-28T10:21:54.018Z,3.97
2022-10-28T10:24:33.183Z,8.05
2022-10-28T10:27:09.640Z,8.68
2022-10-28T10:29:43.185Z,8.50
2022-10-28T10:32:29.514Z,16.58
2022-10-28T10:34:56.553Z,8.27
2022-10-28T10:37:23.938Z,6.20
2022-10-28T10:40:25.466Z,9.80
2022-10-28T10:43:13.143Z,15.90
2022-10-28T10:45:48.155Z,4.70
2022-10-28T10:48:17.776Z,9.80
2022-10-28T10:50:49.390Z,6.55
2022-10-28T10:53:30.647Z,6.72
2022-10-28T10:56:03.074Z,11.48
2022-10-28T10:58:46.396Z,5.65
2022-10-28T11:01:24.482Z,4.82
2022-10-28T11:06:41.808Z,5.80
2022-10-28T11:09:39.031Z,3.42
2022-10-28T11:12:31.348Z,5.00
2022-10-28T11:15:15.161Z,6.05
2022-10-28T11:17:56.537Z,10.63
2022-10-28T11:20:30.582Z,2.60
2022-10-28T11:23:20.091Z,6.97
2022-10-28T11:25:52.465Z,8.07
2022-10-28T11:29:10.453Z,3.20
2022-10-28T11:31:47.050Z,2.28
2022-10-28T11:34:33.790Z,4.25
2022-10-28T11:37:31.072Z,2.67
2022-10-28T11:40:30.213Z,0.60
2022-10-28T11:43:54.350Z,12.43
2022-10-28T11:46:51.352Z,3.97
2022-10-28T11:49:36.563Z,3.92
2022-10-28T11:52:55.183Z,4.53
2022-10-28T11:55:37.665Z,1.00
2022-10-28T11:58:47.791Z,2.00
2022-10-28T12:01:51.890Z,2.30
2022-10-28T12:04:45.635Z,11.38
2022-10-28T12:07:29.259Z,0.82
2022-10-28T12:10:18.919Z,4.85
2022-10-28T12:13:29.258Z,3.25
2022-10-28T12:16:41.223Z,3.10
2022-10-28T12:19:15.607Z,1.15
2022-10-28T12:22:22.539Z,1.42
2022-10-28T12:24:51.578Z,3.33
2022-10-28T12:27:41.474Z,1.02
2022-10-28T12:30:27.216Z,1.42
2022-10-28T12:33:35.366Z,5.80
2022-10-28T12:36:09.413Z,3.63
2022-10-28T12:38:56.543Z,1.50
2022-10-28T12:41:46.436Z,2.10
2022-10-28T12:44:20.083Z,4.35
2022-10-28T12:47:03.043Z,26.23
2022-10-28T12:50:07.789Z,6.15
2022-10-28T12:53:30.809Z,9.32
2022-10-28T12:56:01.149Z,4.30
2022-10-28T13:01:33.362Z,3.10
2022-10-28T13:04:01.425Z,1.55
2022-10-28T13:06:49.770Z,4.75
2022-10-28T13:09:41.095Z,5.05
2022-10-28T13:12:38.507Z,2.70
2022-10-28T13:15:43.690Z,3.00
2022-10-28T13:18:41.259Z,4.15
2022-10-28T13:21:49.591Z,4.68
2022-10-28T13:24:33.997Z,2.22
2022-10-28T13:27:04.051Z,3.83
2022-10-28T13:29:34.264Z,2.38
2022-10-28T13:32:01.821Z,6.28
2022-10-28T13:34:37.090Z,7.22
2022-10-28T13:37:16.135Z,3.28
2022-10-28T13:42:18.965Z,4.07
2022-10-28T13:44:49.609Z,10.55
2022-10-28T13:47:16.687Z,4.88
2022-10-28T13:50:05.439Z,8.45
2022-10-28T13:52:34.478Z,2.75
2022-10-28T13:55:13.798Z,2.72
2022-10-28T13:57:46.310Z,4.30
2022-10-28T14:00:20.811Z,4.57
2022-10-28T14:03:00.633Z,3.00
2022-10-28T14:05:37.114Z,5.10
2022-10-28T14:08:24.058Z,4.65
2022-10-28T14:11:02.162Z,8.07
2022-10-28T14:13:33.924Z,5.87
2022-10-28T14:16:23.560Z,7.35
2022-10-28T14:19:10.891Z,7.82
2022-10-28T14:22:00.740Z,3.38
2022-10-28T14:24:41.583Z,4.50
2022-10-28T14:27:09.210Z,4.63
2022-10-28T14:29:56.183Z,3.78
2022-10-28T14:32:32.617Z,7.53
2022-10-28T14:35:28.283Z,6.05
2022-10-28T14:38:29.307Z,6.82
2022-10-28T14:41:47.787Z,6.38
2022-10-28T14:44:48.492Z,7.22
2022-10-28T14:47:48.901Z,7.00
2022-10-28T14:50:20.572Z,5.22
2022-10-28T14:52:50.343Z,3.75
2022-10-28T14:55:29.845Z,14.25
2022-10-28T14:58:28.639Z,10.82
2022-10-28T15:03:53.367Z,6.90
2022-10-28T15:06:38.649Z,6.30
2022-10-28T15:09:20.260Z,6.97
2022-10-28T15:12:10.391Z,11.07
2022-10-28T15:14:57.016Z,12.18
2022-10-28T15:17:28.969Z,2.65
2022-10-28T15:19:59.822Z,4.68
2022-10-28T15:22:32.544Z,8.00
2022-10-28T15:25:05.716Z,7.13
2022-10-28T15:27:41.617Z,4.55
2022-10-28T15:30:25.584Z,5.13
2022-10-28T15:32:54.367Z,10.45
2022-10-28T15:35:32.192Z,22.27
2022-10-28T15:38:02.542Z,13.57
2022-10-28T15:40:34.784Z,9.20
2022-10-28T15:43:04.797Z,17.98
2022-10-28T15:45:39.697Z,19.83
2022-10-28T15:48:20.231Z,12.93
2022-10-28T15:51:17.703Z,16.30
2022-10-28T15:53:46.157Z,9.93
2022-10-28T15:56:21.608Z,9.57
2022-10-28T15:59:22.419Z,19.63
2022-10-28T16:01:50.121Z,15.02
2022-10-28T16:04:23.550Z,17.55
2022-10-28T16:07:05.889Z,14.65
2022-10-28T16:09:44.937Z,15.63
2022-10-28T16:14:58.409Z,16.70
2022-10-28T16:17:34.373Z,16.23
2022-10-28T16:20:17.057Z,18.20
2022-10-28T16:22:46.681Z,12.82
2022-10-28T16:25:22.178Z,18.40
2022-10-28T16:27:50.287Z,13.13
2022-10-28T16:30:18.016Z,10.87
2022-10-28T16:32:49.916Z,14.70
2022-10-28T16:35:23.822Z,15.23
2022-10-28T16:37:55.183Z,7.47
2022-10-28T16:40:51.071Z,9.80
2022-10-28T16:43:36.829Z,13.68
2022-10-28T16:46:04.145Z,15.95
2022-10-28T16:48:31.366Z,10.25
2022-10-28T16:51:17.028Z,10.57
2022-10-28T16:53:46.554Z,6.75
2022-10-28T16:56:16.513Z,9.18
2022-10-28T16:58:44.274Z,10.25
2022-10-28T17:01:12.680Z,13.32
2022-10-28T17:03:39.922Z,11.45
2022-10-28T17:06:09.822Z,10.95
2022-10-28T17:09:01.155Z,5.45
2022-10-28T17:11:24.124Z,6.95
2022-10-28T17:13:51.253Z,9.00
2022-10-28T17:16:18.397Z,12.15
2022-10-28T17:18:48.264Z,9.70
2022-10-28T17:21:15.453Z,10.70
2022-10-28T17:23:42.495Z,18.60
2022-10-28T17:26:09.973Z,17.83
2022-10-28T17:28:37.096Z,17.95
2022-10-28T17:31:07.115Z,12.60
2022-10-28T17:33:34.851Z,13.05
2022-10-28T17:36:08.004Z,17.80
2022-10-28T17:38:35.193Z,23.83
2022-10-28T17:41:02.479Z,31.10
2022-10-28T17:43:29.632Z,31.17
2022-10-28T17:46:07.071Z,41.53
2022-10-28T17:48:34.675Z,17.42
2022-10-28T17:51:01.847Z,21.50
2022-10-28T17:53:29.061Z,24.45
2022-10-28T17:55:57.824Z,26.02
2022-10-28T17:58:25.326Z,30.75
2022-10-28T18:01:00.608Z,37.33
2022-10-28T18:03:32.764Z,27.63
2022-10-28T18:06:04.980Z,33.38
2022-10-28T18:08:36.672Z,26.60
2022-10-28T18:11:05.239Z,31.13
2022-10-28T18:13:35.729Z,28.77
2022-10-28T18:16:12.330Z,18.40
2022-10-28T18:18:42.459Z,26.23
2022-10-28T18:21:11.672Z,33.58
2022-10-28T18:23:40.358Z,30.08
2022-10-28T18:26:15.218Z,26.40
2022-10-28T18:28:44.474Z,20.95
2022-10-28T18:33:44.691Z,12.43
2022-10-28T18:36:22.221Z,16.27
2022-10-28T18:38:50.500Z,14.93
2022-10-28T18:41:23.730Z,15.38
2022-10-28T18:43:59.256Z,19.38
2022-10-28T18:46:28.047Z,18.55
2022-10-28T18:48:56.873Z,23.50
2022-10-28T18:51:24.646Z,22.30
2022-10-28T18:53:52.277Z,22.17
2022-10-28T18:56:23.744Z,16.92
2022-10-28T18:58:51.824Z,27.67
2022-10-28T19:01:26.089Z,29.65
2022-10-28T19:03:58.846Z,25.40
2022-10-28T19:06:31.741Z,140.43
2022-10-28T19:09:02.403Z,93.85
2022-10-28T19:11:32.165Z,85.30
2022-10-28T19:14:05.074Z,49.42
2022-10-28T19:16:33.693Z,65.65
2022-10-28T19:19:04.010Z,98.47
2022-10-28T19:21:31.713Z,105.25
2022-10-28T19:23:59.000Z,86.13
2022-10-28T19:26:27.140Z,37.28
2022-10-28T19:28:54.461Z,33.65
2022-10-28T19:31:25.430Z,27.13
2022-10-28T19:33:54.060Z,24.02
2022-10-28T19:36:28.994Z,16.60
2022-10-28T19:38:57.438Z,24.63
2022-10-28T19:41:28.478Z,34.07
2022-10-28T19:44:01.639Z,33.85
2022-10-28T19:46:31.855Z,20.20
2022-10-28T19:49:01.178Z,22.45
2022-10-28T19:54:04.492Z,23.48
2022-10-28T19:56:34.345Z,23.23
2022-10-28T19:59:03.605Z,17.70
2022-10-28T20:04:01.018Z,17.15
2022-10-28T20:06:34.795Z,17.00
2022-10-28T20:09:02.928Z,17.08
2022-10-28T20:11:33.558Z,17.48
2022-10-28T20:14:11.036Z,19.08
2022-10-28T20:16:41.791Z,20.33
2022-10-28T20:19:09.238Z,18.20
2022-10-28T20:21:37.593Z,22.17
2022-10-28T20:24:06.495Z,21.27
2022-10-28T20:26:36.332Z,16.13
2022-10-28T20:29:05.962Z,19.48
2022-10-28T20:31:33.109Z,18.30
2022-10-28T20:34:05.402Z,19.17
2022-10-28T20:36:33.622Z,18.83
2022-10-28T20:39:05.181Z,17.45
2022-10-28T20:41:34.910Z,12.73
2022-10-28T20:44:03.115Z,18.92
2022-10-28T20:46:30.992Z,19.17
2022-10-28T20:49:00.130Z,32.42
2022-10-28T20:51:30.726Z,26.63
2022-10-28T20:53:59.149Z,20.45
2022-10-28T20:56:29.301Z,32.78
2022-10-28T20:58:57.366Z,24.20
2022-10-28T21:01:39.565Z,17.98
2022-10-28T21:04:10.557Z,22.63
2022-10-28T21:06:38.324Z,15.95
2022-10-28T21:09:06.197Z,17.95
2022-10-28T21:11:33.630Z,16.40
2022-10-28T21:14:01.462Z,17.35
2022-10-28T21:16:30.116Z,19.60
2022-10-28T21:18:58.962Z,16.30
2022-10-28T21:21:26.969Z,21.10
2022-10-28T21:23:54.205Z,18.27
2022-10-28T21:26:21.680Z,19.13
2022-10-28T21:28:52.569Z,13.57
2022-10-28T21:31:20.498Z,17.67
2022-10-28T21:36:21.798Z,14.25
2022-10-28T21:38:54.374Z,11.00
2022-10-28T21:41:22.805Z,25.08
2022-10-28T21:43:52.058Z,16.63
2022-10-28T21:46:20.846Z,16.92
2022-10-28T21:48:48.252Z,14.75
2022-10-28T21:51:16.755Z,15.93
2022-10-28T21:53:44.867Z,15.17
2022-10-28T21:56:19.317Z,15.20
2022-10-28T21:58:49.973Z,18.55
2022-10-28T22:01:23.267Z,13.63
2022-10-28T22:03:53.890Z,16.75
2022-10-28T22:06:21.872Z,19.00
2022-10-28T22:08:51.809Z,15.27
2022-10-28T22:11:21.649Z,13.82
2022-10-28T22:13:56.587Z,13.57
2022-10-28T22:16:25.021Z,22.20
2022-10-28T22:18:52.728Z,19.13
2022-10-28T22:21:24.510Z,19.83
2022-10-28T22:23:52.375Z,14.13
2022-10-28T22:26:23.792Z,19.63
2022-10-28T22:28:51.615Z,19.73
2022-10-28T22:31:25.899Z,19.58
2022-10-28T22:33:53.657Z,16.60
2022-10-28T22:36:23.969Z,20.70
2022-10-28T22:38:51.664Z,17.67
2022-10-28T22:41:25.124Z,17.10
2022-10-28T22:43:55.590Z,16.95
2022-10-28T22:46:25.881Z,18.70
2022-10-28T22:48:53.624Z,36.33
2022-10-28T22:51:21.387Z,21.55
2022-10-28T22:53:49.159Z,25.17
2022-10-28T22:56:22.570Z,25.38
2022-10-28T22:58:56.158Z,19.65
2022-10-28T23:01:25.310Z,20.48
2022-10-28T23:03:54.034Z,27.48
2022-10-28T23:06:24.284Z,26.87
2022-10-28T23:08:51.790Z,17.98
2022-10-28T23:11:20.992Z,16.98
2022-10-28T23:13:53.327Z,25.25
2022-10-28T23:16:22.570Z,19.70
2022-10-28T23:18:52.035Z,18.80
2022-10-28T23:23:56.014Z,20.60
2022-10-28T23:26:24.382Z,30.95
2022-10-28T23:28:54.084Z,24.98
2022-10-28T23:31:22.333Z,18.23
2022-10-28T23:33:50.339Z,14.85
2022-10-28T23:36:17.574Z,18.40
2022-10-28T23:38:44.887Z,17.23
2022-10-28T23:41:17.517Z,10.95
2022-10-28T23:43:45.190Z,15.85
2022-10-28T23:46:12.400Z,18.52
2022-10-28T23:48:39.822Z,14.60
2022-10-28T23:51:07.548Z,14.45
2022-10-28T23:53:34.969Z,15.38
2022-10-28T23:56:02.178Z,22.38
2022-10-28T23:58:29.337Z,15.82
